createdAt,value
2022-07-31T00:00:02.787Z,66
2022-07-31T00:20:02.314Z,67
2022-07-31T00:40:02.592Z,67
2022-07-31T01:00:02.902Z,68
2022-07-31T01:20:02.371Z,68
2022-07-31T01:40:02.762Z,69
2022-07-31T02:00:03.804Z,70
2022-07-31T02:20:02.210Z,71
2022-07-31T02:40:02.478Z,71
2022-07-31T03:00:05.187Z,72
2022-07-31T03:20:02.648Z,72
2022-07-31T03:40:03.106Z,71
2022-07-31T04:00:03.394Z,71
2022-07-31T04:20:05.905Z,72
2022-07-31T04:40:02.365Z,71
2022-07-31T05:00:02.599Z,70
2022-07-31T05:20:02.827Z,69
2022-07-31T05:40:02.983Z,67
2022-07-31T06:00:04.357Z,63
2022-07-31T06:20:07.798Z,59
2022-07-31T06:40:03.046Z,54
2022-07-31T07:00:20.918Z,48
2022-07-31T07:20:02.759Z,43
2022-07-31T07:40:04.322Z,42
2022-07-31T08:00:02.650Z,42
2022-07-31T08:20:07.724Z,40
2022-07-31T08:40:02.873Z,39
2022-07-31T09:00:03.091Z,38
2022-07-31T09:20:02.392Z,37
2022-07-31T09:40:08.196Z,34
2022-07-31T10:00:02.476Z,33
2022-07-31T10:20:02.935Z,33
2022-07-31T10:40:02.209Z,34
2022-07-31T11:00:02.585Z,33
2022-07-31T11:20:03.025Z,32
2022-07-31T11:40:02.502Z,31
2022-07-31T12:00:29.927Z,31
2022-07-31T12:20:03.003Z,30
2022-07-31T12:40:02.580Z,31
2022-07-31T13:00:02.951Z,32
2022-07-31T13:20:02.216Z,32
2022-07-31T13:40:02.596Z,35
2022-07-31T14:00:02.885Z,36
2022-07-31T14:20:02.399Z,38
2022-07-31T14:40:02.700Z,35
2022-07-31T15:00:03.124Z,33
2022-07-31T15:20:02.451Z,34
2022-07-31T15:40:04.097Z,34
2022-07-31T16:00:02.365Z,35
2022-07-31T16:20:07.762Z,36
2022-07-31T16:40:04.583Z,38
2022-07-31T17:00:02.719Z,38
2022-07-31T17:20:03.048Z,39
2022-07-31T17:40:02.390Z,41
2022-07-31T18:00:02.796Z,42
2022-07-31T18:20:02.182Z,44
2022-07-31T18:40:02.352Z,46
2022-07-31T19:00:02.614Z,47
2022-07-31T19:20:04.150Z,49
2022-07-31T19:40:02.567Z,49
2022-07-31T20:00:02.947Z,50
2022-07-31T20:20:16.306Z,51
2022-07-31T20:40:02.524Z,51
2022-07-31T21:00:02.803Z,53
2022-07-31T21:20:03.155Z,53
2022-07-31T21:40:02.655Z,54
2022-07-31T22:00:03.141Z,56
2022-07-31T22:20:02.396Z,59
2022-07-31T22:40:02.852Z,60
2022-07-31T23:00:03.244Z,61
2022-07-31T23:20:02.605Z,62
2022-07-31T23:40:02.661Z,61
